Time;durP1;ratioP1;P1;durP2;ratioP2;P2;SDS_P1;SDS_P2;PMS_P1;PMS_P2;Temp;Humidity;BMP_temperature;BMP_pressure;BME280_temperature;BME280_humidity;BME280_pressure;Samples;Min_cycle;Max_cycle;Signal;HPM_P1;HPM_P2
2022/08/08 00:04:10;;;;;;;2.65;2.08;;;;;;;15.27;89.50;98043.53;18301550;32;20062;-61
2022/08/08 00:14:33;;;;;;;2.17;1.92;;;;;;;15.12;90.28;98041.81;18300851;32;20437;-61
2022/08/08 00:25:02;;;;;;;2.25;2.05;;;;;;;15.02;90.78;98053.62;18275888;32;20057;-61
2022/08/08 00:35:19;;;;;;;2.20;1.87;;;;;;;14.89;92.23;98058.66;18299888;32;20066;-61
2022/08/08 00:45:37;;;;;;;2.65;2.05;;;;;;;14.82;92.64;98066.34;18299208;32;20077;-61
2022/08/08 00:56:32;;;;;;;2.20;2.00;;;;;;;14.77;92.75;98054.72;18298686;32;20359;-62
2022/08/08 01:07:12;;;;;;;2.00;1.83;;;;;;;14.68;93.49;98071.66;18252890;32;20054;-61
2022/08/08 01:17:52;;;;;;;3.30;2.17;;;;;;;14.55;93.99;98054.09;18283574;32;20094;-62
2022/08/08 01:28:16;;;;;;;2.50;1.90;;;;;;;14.42;94.04;98065.63;18297706;32;20073;-61
2022/08/08 01:38:38;;;;;;;1.83;1.60;;;;;;;14.29;94.82;98061.62;18296514;32;20058;-62
2022/08/08 01:48:57;;;;;;;2.80;2.40;;;;;;;14.14;94.90;98054.44;18282341;32;20085;-62
2022/08/08 01:59:26;;;;;;;3.27;1.80;;;;;;;14.03;94.78;98061.03;18168958;32;20081;-61
2022/08/08 02:10:34;;;;;;;2.77;2.20;;;;;;;13.89;95.10;98064.41;18169372;32;20062;-62
2022/08/08 02:22:30;;;;;;;2.80;2.13;;;;;;;13.84;95.89;98060.88;18168279;32;20059;-61
2022/08/08 02:31:45;;;;;;;2.23;2.03;;;;;;;13.70;96.27;98066.13;18168770;32;20050;-62
2022/08/08 02:42:16;;;;;;;2.40;2.20;;;;;;;13.54;95.98;98063.50;18156482;32;20111;-62
2022/08/08 02:52:39;;;;;;;2.27;2.07;;;;;;;13.38;95.75;98054.59;18214338;32;20097;-62
2022/08/08 03:03:04;;;;;;;2.70;2.03;;;;;;;13.26;96.17;98056.00;18293515;32;20054;-62
2022/08/08 03:13:27;;;;;;;2.77;1.97;;;;;;;13.11;95.44;98052.25;18278933;32;20050;-62
2022/08/08 03:23:50;;;;;;;2.97;2.17;;;;;;;12.97;96.05;98048.50;18294834;32;20054;-62
2022/08/08 03:34:01;;;;;;;1.80;1.53;;;;;;;12.85;95.51;98054.22;18302721;32;20081;-63
2022/08/08 03:44:05;;;;;;;2.07;1.60;;;;;;;12.69;95.64;98070.53;18302046;32;20054;-63
2022/08/08 03:54:09;;;;;;;1.50;1.30;;;;;;;12.58;95.43;98084.38;18302160;32;20138;-63
2022/08/08 04:04:38;;;;;;;2.67;1.43;;;;;;;12.40;95.85;98088.47;18287499;32;20058;-64
2022/08/08 04:14:42;;;;;;;2.20;1.30;;;;;;;12.26;95.57;98093.63;18300898;32;20150;-64
2022/08/08 04:24:46;;;;;;;2.07;1.43;;;;;;;12.11;95.57;98105.25;18286360;32;20050;-64
2022/08/08 04:34:51;;;;;;;1.73;1.43;;;;;;;12.00;96.21;98107.12;18285847;32;20061;-64
2022/08/08 04:45:00;;;;;;;3.17;1.70;;;;;;;12.00;96.58;98115.28;18299567;32;20105;-64
2022/08/08 04:55:02;;;;;;;3.37;1.63;;;;;;;12.03;96.32;98122.84;18285169;32;20136;-64
2022/08/08 05:05:08;;;;;;;2.80;1.67;;;;;;;12.12;95.76;98125.87;18298435;32;20102;-64
2022/08/08 05:15:22;;;;;;;1.70;1.10;;;;;;;12.37;95.99;98122.34;18297692;32;20100;-64
2022/08/08 05:25:32;;;;;;;1.40;1.20;;;;;;;12.65;95.32;98137.28;18297523;32;20105;-64
2022/08/08 05:35:44;;;;;;;1.97;1.50;;;;;;;12.95;94.42;98140.25;18271329;32;20113;-64
2022/08/08 05:45:47;;;;;;;4.10;1.40;;;;;;;13.39;95.81;98142.34;18295459;32;20445;-64
2022/08/08 05:55:58;;;;;;;2.10;1.60;;;;;;;13.84;93.89;98148.69;18295722;32;20073;-64
2022/08/08 06:06:20;;;;;;;2.15;1.50;;;;;;;14.35;93.05;98153.00;18283546;32;20050;-64
2022/08/08 06:16:40;;;;;;;4.15;1.50;;;;;;;14.83;90.84;98151.59;18295142;32;20104;-64
2022/08/08 06:26:56;;;;;;;1.60;1.40;;;;;;;15.33;89.69;98168.50;18280731;32;20066;-62
2022/08/08 06:37:02;;;;;;;2.03;1.27;;;;;;;15.88;87.20;98176.38;18294348;32;20101;-62
2022/08/08 06:47:25;;;;;;;1.58;1.17;;;;;;;16.42;84.86;98174.25;18293937;32;20062;-62
2022/08/08 06:57:35;;;;;;;2.75;1.20;;;;;;;17.00;79.53;98193.31;18295140;32;20478;-62
2022/08/08 07:08:08;;;;;;;2.92;2.00;;;;;;;17.50;75.82;98190.75;18304187;32;20066;-62
2022/08/08 07:18:27;;;;;;;4.55;2.03;;;;;;;17.96;70.29;98191.78;18289558;32;20061;-62
2022/08/08 07:28:42;;;;;;;2.97;1.52;;;;;;;18.38;69.84;98206.19;18303229;32;20117;-62
2022/08/08 07:38:47;;;;;;;2.10;1.20;;;;;;;18.87;68.49;98219.31;18302616;32;20076;-62
2022/08/08 07:48:56;;;;;;;2.70;1.48;;;;;;;19.35;64.46;98215.13;18264179;32;20474;-62
2022/08/08 07:59:02;;;;;;;1.70;1.35;;;;;;;19.97;62.04;98223.34;18287213;32;20101;-62
2022/08/08 08:09:24;;;;;;;2.05;1.77;;;;;;;20.47;60.05;98224.06;18300303;32;20058;-62
2022/08/08 08:19:38;;;;;;;2.55;1.77;;;;;;;21.01;58.54;98231.19;18287829;32;20082;-62
2022/08/08 08:29:48;;;;;;;3.47;1.80;;;;;;;21.46;54.85;98241.78;18300197;32;20374;-62
2022/08/08 08:39:58;;;;;;;3.37;1.60;;;;;;;21.74;54.24;98238.66;18273944;32;20062;-62
2022/08/08 08:50:04;;;;;;;2.92;1.92;;;;;;;22.10;55.19;98224.38;18299168;32;20073;-62
2022/08/08 09:00:28;;;;;;;;;;;;;;;22.49;52.89;98227.09;18298701;32;20062;-62
2022/08/08 09:11:14;;;;;;;2.22;1.40;;;;;;;22.95;52.78;98229.97;18298374;32;20004;-62
2022/08/08 09:21:20;;;;;;;2.65;1.10;;;;;;;23.54;50.48;98230.84;18297343;32;20495;-62
2022/08/08 09:32:03;;;;;;;2.15;1.33;;;;;;;23.72;49.96;98218.44;18297010;32;20351;-62
2022/08/08 09:42:22;;;;;;;2.20;1.23;;;;;;;24.28;47.82;98222.59;18296308;32;20061;-62
2022/08/08 09:52:31;;;;;;;1.75;1.62;;;;;;;24.62;47.09;98215.75;18281855;32;20122;-62
2022/08/08 10:02:56;;;;;;;1.83;1.20;;;;;;;24.86;46.25;98209.34;18295516;32;20112;-62
2022/08/08 10:13:02;;;;;;;2.30;1.55;;;;;;;25.10;44.05;98209.59;18295473;32;20062;-62
2022/08/08 10:23:27;;;;;;;2.78;1.33;;;;;;;25.23;41.13;98208.38;18294645;32;20117;-62
2022/08/08 10:33:46;;;;;;;3.08;1.33;;;;;;;25.63;43.45;98193.63;18285206;32;20058;-62
2022/08/08 10:44:23;;;;;;;2.00;1.42;;;;;;;26.25;39.56;98195.88;18294465;32;20062;-62
2022/08/08 10:54:31;;;;;;;2.03;1.30;;;;;;;26.49;40.41;98194.00;18304682;32;20089;-62
2022/08/08 11:04:51;;;;;;;1.70;1.30;;;;;;;26.89;38.44;98173.47;18304247;32;20093;-62
2022/08/08 11:15:02;;;;;;;1.85;1.37;;;;;;;27.13;38.88;98185.41;18291138;32;20090;-62
2022/08/08 11:25:11;;;;;;;1.60;1.20;;;;;;;27.34;40.36;98171.94;18303617;32;20074;-62
2022/08/08 11:35:39;;;;;;;2.00;1.40;;;;;;;27.93;40.65;98168.12;18302934;32;20106;-62
2022/08/08 11:45:51;;;;;;;1.77;1.30;;;;;;;28.42;40.04;98149.78;18289268;32;20117;-62
2022/08/08 11:56:22;;;;;;;1.80;1.30;;;;;;;28.74;38.66;98145.44;18301621;32;20097;-62
2022/08/08 12:06:26;;;;;;;3.67;1.30;;;;;;;28.95;37.06;98144.06;18287374;32;20453;-62
2022/08/08 12:16:30;;;;;;;1.80;1.27;;;;;;;29.46;37.28;98134.22;18274625;32;20096;-62
2022/08/08 12:26:52;;;;;;;3.33;1.60;;;;;;;29.63;33.92;98127.22;18286619;32;20075;-62
2022/08/08 12:37:05;;;;;;;2.40;1.50;;;;;;;30.18;35.92;98126.37;18299619;32;20396;-62
2022/08/08 12:47:10;;;;;;;2.35;1.55;;;;;;;30.33;36.40;98113.31;18299582;32;20071;-62
2022/08/08 12:57:16;;;;;;;2.95;1.35;;;;;;;30.84;35.54;98122.69;18298098;32;20444;-62
2022/08/08 13:07:20;;;;;;;1.48;1.30;;;;;;;31.46;33.56;98106.81;18299002;32;20053;-61
2022/08/08 13:17:45;;;;;;;1.75;1.40;;;;;;;31.53;31.02;98103.22;18298077;32;20091;-62
2022/08/08 13:28:08;;;;;;;3.03;1.75;;;;;;;32.18;30.39;98105.94;18273477;32;20058;-62
2022/08/08 13:38:11;;;;;;;3.10;1.40;;;;;;;32.65;30.29;98092.53;18282917;32;20073;-62
2022/08/08 13:48:19;;;;;;;2.62;1.20;;;;;;;33.14;30.61;98100.25;18283067;32;20066;-61
2022/08/08 13:58:28;;;;;;;3.50;1.30;;;;;;;32.54;29.45;98087.00;18231865;32;20054;-62
2022/08/08 14:08:31;;;;;;;3.50;1.30;;;;;;;32.54;27.04;98070.19;18232191;32;20062;-62
2022/08/08 14:18:37;;;;;;;1.90;1.42;;;;;;;32.73;29.88;98070.94;18231205;32;20340;-62
2022/08/08 14:28:58;;;;;;;1.27;1.17;;;;;;;33.54;29.79;98069.94;18230551;32;20057;-61
2022/08/08 14:39:18;;;;;;;2.33;1.15;;;;;;;33.69;29.17;98067.78;18231484;32;20054;-62
2022/08/08 14:49:34;;;;;;;3.50;1.60;;;;;;;33.78;27.20;98073.72;18234081;32;20054;-61
2022/08/08 14:59:59;;;;;;;1.60;1.20;;;;;;;32.43;26.55;98061.84;18293420;32;20081;-62
2022/08/08 15:10:02;;;;;;;4.05;1.40;;;;;;;32.28;29.15;98040.75;18279549;32;20094;-61
2022/08/08 15:20:07;;;;;;;4.60;1.65;;;;;;;31.04;28.33;98044.97;18281946;32;20054;-61
2022/08/08 15:30:16;;;;;;;3.83;1.17;;;;;;;30.28;28.83;98032.78;18303329;32;20077;-61
2022/08/08 15:40:20;;;;;;;1.73;1.30;;;;;;;29.66;30.58;98031.69;18289445;32;20073;-61
2022/08/08 15:50:59;;;;;;;1.50;1.00;;;;;;;29.31;30.22;98021.88;18264267;32;20143;-61
2022/08/08 16:00:54;;;;;;;4.10;1.25;;;;;;;29.04;30.70;98019.28;18301586;32;20396;-61
2022/08/08 16:10:57;;;;;;;1.55;1.00;;;;;;;28.66;31.87;98015.75;18274697;32;20370;-61
2022/08/08 16:21:21;;;;;;;1.33;1.02;;;;;;;28.58;30.73;98014.06;18289598;32;20405;-61
2022/08/08 16:31:28;;;;;;;2.20;1.10;;;;;;;28.48;32.51;98015.56;18299559;32;20101;-61
2022/08/08 16:41:33;;;;;;;1.23;0.88;;;;;;;28.69;33.27;98003.06;18286400;32;20100;-61
2022/08/08 16:51:39;;;;;;;4.65;1.02;;;;;;;28.26;31.69;98005.38;18298864;32;20054;-61
2022/08/08 17:02:03;;;;;;;2.37;1.37;;;;;;;28.29;32.18;97991.50;18287613;32;20466;-61
2022/08/08 17:12:13;;;;;;;2.60;0.98;;;;;;;28.03;33.31;97995.97;18284423;32;20081;-62
2022/08/08 17:22:30;;;;;;;2.60;1.17;;;;;;;27.72;33.17;98000.75;18297747;32;20442;-61
2022/08/08 17:32:43;;;;;;;1.48;1.23;;;;;;;27.46;34.02;98009.88;18273366;32;20057;-61
2022/08/08 17:43:06;;;;;;;1.70;1.10;;;;;;;27.14;34.35;98018.50;18296439;32;20066;-61
2022/08/08 17:53:13;;;;;;;2.28;1.30;;;;;;;26.80;36.36;98026.66;18295801;32;20062;-62
2022/08/08 18:03:16;;;;;;;1.75;1.15;;;;;;;26.46;35.79;98028.38;18281876;32;20473;-61
2022/08/08 18:13:23;;;;;;;1.02;0.90;;;;;;;25.90;43.33;98029.59;18281732;32;20094;-61
2022/08/08 18:23:28;;;;;;;1.85;1.00;;;;;;;25.29;43.93;98045.62;18294605;32;20091;-61
2022/08/08 18:33:31;;;;;;;4.82;1.00;;;;;;;24.63;46.05;98040.44;18281288;32;20096;-61
2022/08/08 18:43:54;;;;;;;2.40;1.10;;;;;;;24.05;47.31;98048.25;18280303;32;20449;-61
2022/08/08 18:53:58;;;;;;;;;;;;;;;23.59;47.84;98057.53;18269000;32;20058;-61
2022/08/08 19:04:07;;;;;;;1.10;0.90;;;;;;;23.40;47.70;98068.38;18305276;32;19960;-61
2022/08/08 19:14:14;;;;;;;1.55;1.08;;;;;;;23.41;46.21;98092.06;18279157;32;20062;-61
2022/08/08 19:24:22;;;;;;;1.65;1.05;;;;;;;23.07;46.60;98107.84;18291057;32;20078;-61
2022/08/08 19:34:47;;;;;;;2.13;1.10;;;;;;;22.75;50.04;98127.66;18292027;32;20122;-61
2022/08/08 19:44:52;;;;;;;1.65;1.27;;;;;;;22.37;51.76;98136.09;18288588;32;20399;-62
2022/08/08 19:55:11;;;;;;;3.85;1.35;;;;;;;21.95;53.05;98148.69;18287838;32;20096;-61
2022/08/08 20:05:17;;;;;;;1.33;1.00;;;;;;;21.49;57.02;98159.41;18301111;32;20150;-61
2022/08/08 20:15:42;;;;;;;3.15;1.67;;;;;;;21.09;58.15;98161.66;18301487;32;20451;-61
2022/08/08 20:26:02;;;;;;;3.45;1.48;;;;;;;20.61;58.11;98153.31;18289178;32;20058;-61
2022/08/08 20:36:06;;;;;;;1.95;1.48;;;;;;;20.21;59.44;98164.44;18300046;32;20085;-62
2022/08/08 20:46:12;;;;;;;2.47;1.85;;;;;;;19.81;60.83;98170.00;18299604;32;20100;-62
2022/08/08 20:56:15;;;;;;;2.50;1.60;;;;;;;19.43;62.53;98165.00;18298854;32;20097;-61
2022/08/08 21:06:18;;;;;;;;;;;;;;;19.10;63.63;98168.06;18285366;32;20058;-61
2022/08/08 21:16:42;;;;;;;2.40;1.77;;;;;;;18.84;64.96;98167.88;18298310;32;19984;-62
2022/08/08 21:26:45;;;;;;;1.70;1.40;;;;;;;18.55;66.44;98174.59;18297694;32;20168;-61
2022/08/08 21:36:53;;;;;;;1.55;1.40;;;;;;;18.28;67.39;98174.41;18297077;32;20099;-61
2022/08/08 21:47:02;;;;;;;1.77;1.30;;;;;;;18.03;67.83;98181.22;18283507;32;20125;-61
2022/08/08 21:57:25;;;;;;;1.52;1.37;;;;;;;17.83;68.51;98170.69;18284552;32;20141;-61
2022/08/08 22:07:45;;;;;;;3.70;1.80;;;;;;;17.64;69.86;98176.25;18281550;32;20050;-61
2022/08/08 22:17:49;;;;;;;2.33;1.60;;;;;;;17.47;70.72;98179.59;18269483;32;20068;-61
2022/08/08 22:27:56;;;;;;;1.50;1.30;;;;;;;17.30;72.01;98177.47;18294598;32;20106;-61
2022/08/08 22:38:20;;;;;;;1.77;1.42;;;;;;;17.13;73.41;98175.31;18294801;32;20092;-61
2022/08/08 22:48:23;;;;;;;2.17;1.42;;;;;;;16.93;74.55;98180.03;18294029;32;20118;-61
2022/08/08 22:58:26;;;;;;;3.25;1.87;;;;;;;16.77;75.40;98173.97;18293429;32;20077;-61
2022/08/08 23:08:30;;;;;;;2.30;1.87;;;;;;;16.65;76.21;98165.44;18267274;32;20101;-61
2022/08/08 23:18:45;;;;;;;1.52;1.42;;;;;;;16.49;77.15;98164.87;18281088;32;20173;-61
2022/08/08 23:28:50;;;;;;;2.05;1.50;;;;;;;16.36;77.30;98172.72;18292371;32;20091;-61
2022/08/08 23:38:52;;;;;;;3.70;1.90;;;;;;;16.22;77.77;98175.34;18278851;32;20100;-61
2022/08/08 23:48:55;;;;;;;2.47;1.85;;;;;;;16.14;77.83;98167.81;18302494;32;20411;-61
2022/08/08 23:59:12;;;;;;;2.62;1.80;;;;;;;16.03;78.64;98163.59;18289993;32;20476;-61
